Albury
Weather
Information

and Archive.
Albury Local Internet Skycam This service provided and funded by Albury Local Internet

Help keep our weatherstation running:

Lavington Weatherstation live data - Conditions of Use

Last updated on 03-May-2016 at 18:42:08
Temperature
  Currently 18.6 degrees C
  Apparent Temperature ("Wind Chill") is 13.4 degrees C
  Today has ranged from  9.5 at 05:01 to 21.2 at 14:41
  Yesterday ranged from  5.7 at 04:00 to 16.4 at 14:47
Wind
  Now:   14.0kmh, gusting to  19.4kmh from 309 degrees ( NW)
  Hour:  16.7kmh, gusting to  31.3kmh
Rainfall
   0.0mm Midnight to Midnight (ie, yesterday)
   0.0mm Since Midnight (ie, so far today)
   0.0mm 9am yesterday to 9am today
   2.6mm Total this month
Misc items
  Relative humidity is 22%
  Dewpoint is -3.5 deg C
  Estimated Cloudbase is 9100 feet
  Barometric Pressure is 1009.0 mbar
  Solar Insolation: 8 W/m^2
Top Solar flares in the last 24 hours <--- NEW

Last 24 hours Temperature Graph (click graph for history)
temperature

Last 24 hours Dynamic Wind display (click image for 4-hour image):
Wind Rose

Current Yarrawonga Weather Radar and Infrared Satellite Images from the BOM.

Hourly summaries in the tables below are cumulative and peak values
for the preceding hour, and instantaneous values at the hour.
So far today, 03-May-2016
Time   Barom.  Wind + Gust    Direction   RH   Rain    Temp.  Minimum    Maximum
01:00  1014.0  11.8  21.6kmh  351 ( N )   47%  0.0mm   12.2  11.2@00:15 12.3@00:55
02:00  1014.0  13.8  23.8kmh  325 ( NW)   46%  0.0mm   12.4  11.5@01:54 12.6@01:26
03:00  1013.0  15.0  23.8kmh  334 (NNW)   47%  0.0mm   12.0  11.4@02:33 12.4@02:00
04:00  1013.0  15.3  29.2kmh  339 (NNW)   47%  0.0mm   11.7  11.2@03:20 12.0@03:00
05:00  1013.0   7.4  20.9kmh  324 ( NW)   53%  0.0mm    9.6   9.6@04:58 11.8@04:05
06:00  1013.0   4.9  14.8kmh  332 (NNW)   55%  0.0mm   10.8   9.5@05:01 11.1@05:17
07:00  1013.0   4.7  14.0kmh  345 (NNW)   57%  0.0mm   11.0   9.8@06:30 11.0@06:53
08:00  1013.0   9.0  17.6kmh  334 (NNW)   56%  0.0mm   11.4  10.9@07:02 11.4@07:58
09:00  1012.0  14.0  29.9kmh  320 ( NW)   47%  0.0mm   14.0  11.4@08:00 14.1@08:56
10:00  1012.0  17.0  29.2kmh  320 ( NW)   40%  0.0mm   15.7  13.8@09:05 16.1@09:57
11:00  1011.0  18.6  33.1kmh  311 ( NW)   31%  0.0mm   17.4  15.5@10:01 17.6@10:49
12:00  1010.0  21.9  39.2kmh  305 ( NW)   25%  0.0mm   19.9  17.4@11:00 20.3@11:59
13:00  1009.0  23.3  51.8kmh  321 ( NW)   19%  0.0mm   20.6  19.0@12:24 20.7@12:53
14:00  1008.0  25.7  43.6kmh  311 ( NW)   16%  0.0mm   20.6  19.6@13:13 20.8@13:41
15:00  1007.0  23.7  45.7kmh  325 ( NW)   14%  0.0mm   20.3  19.9@14:04 21.2@14:41
16:00  1007.0  25.8  49.0kmh  325 ( NW)   14%  0.0mm   20.1  19.6@15:12 20.6@15:36
17:00  1007.0  22.3  49.0kmh  317 ( NW)   18%  0.0mm   19.1  18.9@16:48 20.5@16:05
18:00  1008.0  18.1  31.3kmh  328 (NNW)   19%  0.0mm   18.8  18.7@17:29 19.1@17:00
18:42  1009.0  16.7  31.3kmh  320 ( NW)   22%  0.0mm   18.6  18.6@18:30 18.9@18:02


Summary for yesterday, 02-May-2016
Time   Barom.  Wind + Gust    Direction   RH   Rain    Temp.  Minimum    Maximum
01:00  1018.0   7.7  14.0kmh  299 (WNW)   68%  0.0mm    9.1   8.9@00:37  9.9@00:03
02:00  1018.0   6.6  10.8kmh  303 (WNW)   74%  0.0mm    9.1   9.0@01:38  9.2@01:01
03:00  1017.0   1.5   8.6kmh  314 ( NW)   81%  0.0mm    8.0   8.1@02:29  9.1@02:00
04:00  1017.0   2.1   9.4kmh   24 (NNE)   87%  0.0mm    5.7   7.0@03:25  8.4@03:15
05:00  1018.0   7.1  11.2kmh   15 (NNE)   91%  0.0mm    6.8   5.7@04:00  7.8@04:16
06:00  1018.0   2.6   9.4kmh   14 (NNE)   92%  0.0mm    6.9   6.6@05:40  7.3@05:20
07:00  1018.0   2.5   8.6kmh   27 (NNE)   92%  0.0mm    7.3   6.3@06:45  7.6@06:27
08:00  1018.0   2.0  10.8kmh   34 ( NE)   90%  0.0mm    8.9   7.3@07:00 10.9@07:47
09:00  1018.0   5.8  15.5kmh   24 (NNE)   75%  0.0mm   10.6   8.9@08:00 12.1@08:47
10:00  1018.0   4.5  11.2kmh   43 ( NE)   48%  0.0mm   13.5  10.1@09:13 15.6@09:47
11:00  1018.0   7.8  16.9kmh   23 (NNE)   40%  0.0mm   14.4  13.4@10:01 16.1@10:15
12:00  1017.0  11.9  21.6kmh  318 ( NW)   42%  0.0mm   14.4  13.6@11:37 14.7@11:18
13:00  1016.0  11.6  20.2kmh  328 (NNW)   33%  0.0mm   14.9  13.8@12:22 15.1@12:58
14:00  1016.0  12.4  21.6kmh  344 (NNW)   29%  0.0mm   15.3  14.6@13:02 15.9@13:38
15:00  1016.0  11.1  20.9kmh  313 ( NW)   31%  0.0mm   14.9  14.7@14:59 16.4@14:47
16:00  1016.0  11.6  20.2kmh  337 (NNW)   32%  0.0mm   14.8  14.6@15:23 15.1@15:02
17:00  1016.0  10.9  18.0kmh  351 ( N )   31%  0.0mm   14.4  14.3@16:55 15.1@16:14
18:00  1015.0  10.2  18.7kmh    2 ( N )   42%  0.0mm   13.1  12.7@17:50 14.4@17:00
19:00  1015.0  11.4  19.4kmh   30 (NNE)   45%  0.0mm   13.1  12.5@18:10 13.1@18:00
20:00  1016.0  12.3  23.0kmh   19 (NNE)   43%  0.0mm   13.1  12.3@19:05 13.1@19:00
21:00  1015.0  13.4  20.9kmh    3 ( N )   48%  0.0mm   12.0  12.1@20:50 13.1@20:00
22:00  1015.0  12.1  17.6kmh   29 (NNE)   52%  0.0mm   11.4  11.4@21:59 12.1@21:01
23:00  1015.0  10.9  17.6kmh   38 ( NE)   51%  0.0mm   11.7  10.5@22:50 11.6@22:01
00:00  1015.0  11.7  20.9kmh   30 (NNE)   47%  0.0mm   12.1  11.6@23:01 12.2@23:52